createdAt,value
2016-08-20T00:00:04.269Z,56.2
2016-08-20T00:00:28.381Z,56.4
2016-08-20T00:00:52.561Z,56.2
2016-08-20T00:01:16.695Z,56.2
2016-08-20T00:01:40.822Z,56.1
2016-08-20T00:02:04.958Z,56
2016-08-20T00:02:29.105Z,56.1
2016-08-20T00:02:53.259Z,56.1
2016-08-20T00:03:17.369Z,56
2016-08-20T00:03:41.507Z,55.8
2016-08-20T00:04:05.626Z,56.1
2016-08-20T00:04:29.726Z,56.1
2016-08-20T00:04:53.834Z,56.2
2016-08-20T00:05:17.932Z,56.3
2016-08-20T00:05:42.087Z,56.2
2016-08-20T00:06:06.220Z,56.2
2016-08-20T00:06:30.406Z,56.2
2016-08-20T00:06:54.516Z,56.2
2016-08-20T00:07:18.660Z,56.3
2016-08-20T00:07:42.775Z,56.2
2016-08-20T00:08:06.870Z,55.8
2016-08-20T00:08:31.114Z,55.7
2016-08-20T00:08:55.256Z,55.7
2016-08-20T00:09:19.394Z,56.4
2016-08-20T00:09:43.515Z,56.1
2016-08-20T00:10:07.689Z,56.2
2016-08-20T00:10:31.818Z,56.2
2016-08-20T00:10:55.998Z,56.1
2016-08-20T00:11:20.223Z,55.7
2016-08-20T00:11:44.348Z,55.7
2016-08-20T00:12:08.483Z,55.7
2016-08-20T00:12:32.618Z,55.9
2016-08-20T00:12:56.958Z,56.2
2016-08-20T00:13:21.066Z,56.2
2016-08-20T00:13:45.194Z,56.4
2016-08-20T00:14:09.368Z,56.3
2016-08-20T00:14:33.540Z,56.3
2016-08-20T00:14:57.650Z,56.1
2016-08-20T00:15:21.780Z,56.5
2016-08-20T00:15:45.914Z,56
2016-08-20T00:16:10.133Z,56
2016-08-20T00:16:34.256Z,56.2
2016-08-20T00:16:58.359Z,56.3
2016-08-20T00:17:22.473Z,56.1
2016-08-20T00:17:46.633Z,56.1
2016-08-20T00:18:10.750Z,56
2016-08-20T00:18:34.856Z,55.7
2016-08-20T00:18:58.949Z,55.6
2016-08-20T00:19:23.057Z,56
2016-08-20T00:19:47.178Z,55.9
2016-08-20T00:20:11.297Z,55.9
2016-08-20T00:20:35.425Z,55.5
2016-08-20T00:20:59.568Z,55.4
2016-08-20T00:21:23.766Z,55.4
2016-08-20T00:21:47.920Z,55.1
2016-08-20T00:22:12.050Z,56
2016-08-20T00:22:36.174Z,55.5
2016-08-20T00:23:00.275Z,55.8
2016-08-20T00:23:24.363Z,55.8
2016-08-20T00:23:48.460Z,55.4
2016-08-20T00:24:12.572Z,55.6
2016-08-20T00:24:36.693Z,55.5
2016-08-20T00:25:00.817Z,55.5
2016-08-20T00:25:24.927Z,55.6
2016-08-20T00:25:49.049Z,55.7
2016-08-20T00:26:13.204Z,55.7
2016-08-20T00:26:37.344Z,55.7
2016-08-20T00:27:01.535Z,55.7
2016-08-20T00:27:25.658Z,56.3
2016-08-20T00:27:49.771Z,56
2016-08-20T00:28:13.890Z,56.2
2016-08-20T00:28:38.009Z,56
2016-08-20T00:29:02.142Z,56.1
2016-08-20T00:29:26.315Z,56.2
2016-08-20T00:29:50.407Z,55.9
2016-08-20T00:30:14.540Z,55.8
2016-08-20T00:30:38.666Z,56.1
2016-08-20T00:31:02.788Z,56.7
2016-08-20T00:31:26.939Z,56
2016-08-20T00:31:51.058Z,56.2
2016-08-20T00:32:15.183Z,56.2
2016-08-20T00:32:39.304Z,56.3
2016-08-20T00:33:03.412Z,56.2
2016-08-20T00:33:27.542Z,56.5
2016-08-20T00:33:51.660Z,56.2
2016-08-20T00:34:15.768Z,56.3
2016-08-20T00:34:39.908Z,56.4
2016-08-20T00:35:04.032Z,56.2
2016-08-20T00:35:28.185Z,56.1
2016-08-20T00:35:52.374Z,56.2
2016-08-20T00:36:16.477Z,56.7
2016-08-20T00:36:40.621Z,56.6
2016-08-20T00:37:04.735Z,56.5
2016-08-20T00:37:28.893Z,56.9
2016-08-20T00:37:53.122Z,56.2
2016-08-20T00:38:17.305Z,56.1
2016-08-20T00:38:41.472Z,56.3
2016-08-20T00:39:05.658Z,55.4
2016-08-20T00:39:29.761Z,55.6
2016-08-20T00:39:53.928Z,55.5
2016-08-20T00:40:18.055Z,55.7
2016-08-20T00:40:42.260Z,56.1
2016-08-20T00:41:06.353Z,56.2
2016-08-20T00:41:30.480Z,56.4
2016-08-20T00:41:54.681Z,56.2
2016-08-20T00:42:18.791Z,55.6
2016-08-20T00:42:42.918Z,56.2
2016-08-20T00:43:07.025Z,56.1
2016-08-20T00:43:31.167Z,56.2
2016-08-20T00:43:55.295Z,56.2
2016-08-20T00:44:19.412Z,55.9
2016-08-20T00:44:43.544Z,56.2
2016-08-20T00:45:07.651Z,56.1
2016-08-20T00:45:31.752Z,56.7
2016-08-20T00:45:55.880Z,57
2016-08-20T00:46:19.993Z,56.9
2016-08-20T00:46:44.095Z,57
2016-08-20T00:47:08.209Z,56.9
2016-08-20T00:47:32.314Z,56.6
2016-08-20T00:47:56.422Z,56.9
2016-08-20T00:48:20.519Z,57.1
2016-08-20T00:48:44.624Z,57.1
2016-08-20T00:49:08.767Z,57
2016-08-20T00:49:32.847Z,56.9
2016-08-20T00:49:56.974Z,56.9
2016-08-20T00:50:21.100Z,56.9
2016-08-20T00:50:45.214Z,56.5
2016-08-20T00:51:09.316Z,56.8
2016-08-20T00:51:33.437Z,57.1
2016-08-20T00:51:57.572Z,56.8
2016-08-20T00:52:21.686Z,56.8
2016-08-20T00:52:45.781Z,57.1
2016-08-20T00:53:09.884Z,57.3
2016-08-20T00:53:34.009Z,57.2
2016-08-20T00:53:58.161Z,57.2
2016-08-20T00:54:22.256Z,57.1
2016-08-20T00:54:46.366Z,57.2
2016-08-20T00:55:10.484Z,57.1
2016-08-20T00:55:34.623Z,56.8
2016-08-20T00:55:58.743Z,57.4
2016-08-20T00:56:22.624Z,57.8
2016-08-20T00:56:46.780Z,57.3
2016-08-20T00:57:10.886Z,57.1
2016-08-20T00:57:35.030Z,57
2016-08-20T00:57:59.125Z,57.3
2016-08-20T00:58:23.234Z,57.3
2016-08-20T00:58:47.353Z,57.1
2016-08-20T00:59:11.478Z,57.2
2016-08-20T00:59:35.566Z,57.2
2016-08-20T00:59:59.678Z,57.1
2016-08-20T01:00:23.792Z,57
2016-08-20T01:00:47.928Z,57.1
2016-08-20T01:01:12.129Z,57.2
2016-08-20T01:01:36.270Z,57
2016-08-20T01:02:00.378Z,56.7
2016-08-20T01:02:24.497Z,57.2
2016-08-20T01:02:48.590Z,57.2
2016-08-20T01:03:12.764Z,57.3
2016-08-20T01:03:36.933Z,57.2
2016-08-20T01:04:01.085Z,57.1
2016-08-20T01:04:25.206Z,57
2016-08-20T01:04:49.308Z,56.9
2016-08-20T01:05:13.413Z,57.1
2016-08-20T01:05:37.550Z,57.1
2016-08-20T01:06:01.707Z,57.1
2016-08-20T01:06:25.821Z,57.1
2016-08-20T01:06:49.967Z,57
2016-08-20T01:07:14.152Z,57.3
2016-08-20T01:07:38.333Z,56.5
2016-08-20T01:08:02.454Z,56.7
2016-08-20T01:08:26.585Z,57.4
2016-08-20T01:08:50.729Z,56.9
2016-08-20T01:09:14.848Z,57
2016-08-20T01:09:38.953Z,56.8
2016-08-20T01:10:03.060Z,56.8
2016-08-20T01:10:27.180Z,56.9
2016-08-20T01:10:51.280Z,56.9
2016-08-20T01:11:15.370Z,57.4
2016-08-20T01:11:39.473Z,57.2
2016-08-20T01:12:03.582Z,56.9
2016-08-20T01:12:27.812Z,57.2
2016-08-20T01:12:51.930Z,56.9
2016-08-20T01:13:16.033Z,56.9
2016-08-20T01:13:40.144Z,57.1
2016-08-20T01:14:04.320Z,57.4
2016-08-20T01:14:28.435Z,57.2
2016-08-20T01:14:52.547Z,57.8
2016-08-20T01:15:16.676Z,57
2016-08-20T01:15:40.775Z,57.6
2016-08-20T01:16:04.883Z,57
2016-08-20T01:16:29.004Z,57.4
2016-08-20T01:16:53.130Z,57.3
2016-08-20T01:17:17.352Z,57.4
2016-08-20T01:17:41.479Z,57.3
2016-08-20T01:18:06.001Z,57.3
2016-08-20T01:18:30.153Z,57.2
2016-08-20T01:18:54.277Z,57.2
2016-08-20T01:19:18.380Z,57.3
2016-08-20T01:19:42.495Z,57.3
2016-08-20T01:20:06.626Z,57.7
2016-08-20T01:20:31.710Z,56.9
2016-08-20T01:20:55.834Z,57.8
2016-08-20T01:21:19.949Z,57.1
2016-08-20T01:21:44.055Z,57.3
2016-08-20T01:22:08.195Z,56.9
2016-08-20T01:22:32.329Z,56.6
2016-08-20T01:22:56.430Z,57.1
2016-08-20T01:23:20.541Z,56.9
2016-08-20T01:23:44.681Z,57.1
2016-08-20T01:24:08.832Z,56.8
2016-08-20T01:24:32.928Z,56.6
2016-08-20T01:24:57.036Z,56.2
2016-08-20T01:25:21.195Z,57
2016-08-20T01:25:45.340Z,56.8
2016-08-20T01:26:09.466Z,57
2016-08-20T01:26:33.585Z,57
2016-08-20T01:26:57.716Z,56.4
2016-08-20T01:27:21.866Z,56.3
2016-08-20T01:27:45.966Z,56.1
2016-08-20T01:28:10.079Z,56.5
2016-08-20T01:28:34.223Z,56.1
2016-08-20T01:28:58.363Z,56.3
2016-08-20T01:29:22.452Z,56
2016-08-20T01:29:46.579Z,56.5
2016-08-20T01:30:10.675Z,56.6
2016-08-20T01:30:34.821Z,56.5
2016-08-20T01:30:58.921Z,56.3
2016-08-20T01:31:23.026Z,56.5
2016-08-20T01:31:47.146Z,56.5
2016-08-20T01:32:11.326Z,56.3
2016-08-20T01:32:35.454Z,56.5
2016-08-20T01:32:59.564Z,56.5
2016-08-20T01:33:23.672Z,56.2
2016-08-20T01:33:47.804Z,56
2016-08-20T01:34:11.965Z,56.2
2016-08-20T01:34:36.034Z,56.2
2016-08-20T01:35:00.164Z,55.8
2016-08-20T01:35:24.283Z,56.2
2016-08-20T01:35:48.409Z,55.7
2016-08-20T01:36:12.545Z,56.2
2016-08-20T01:36:36.652Z,56.5
2016-08-20T01:37:00.769Z,56.4
2016-08-20T01:37:24.885Z,56.4
2016-08-20T01:37:48.987Z,56.2
2016-08-20T01:38:13.100Z,56.6
2016-08-20T01:38:37.222Z,56.4
2016-08-20T01:39:01.372Z,56.5
2016-08-20T01:39:25.473Z,56.6
2016-08-20T01:39:49.621Z,56.6
2016-08-20T01:40:13.722Z,56.2
2016-08-20T01:40:37.841Z,56.6
2016-08-20T01:41:01.952Z,56.4
2016-08-20T01:41:26.057Z,56.3
2016-08-20T01:41:50.186Z,56.5
2016-08-20T01:42:14.303Z,56.6
2016-08-20T01:42:38.422Z,57.1
2016-08-20T01:43:02.517Z,56.8
2016-08-20T01:43:26.639Z,56.8
2016-08-20T01:43:50.747Z,56.7
2016-08-20T01:44:14.870Z,57.1
2016-08-20T01:44:38.996Z,56.6
2016-08-20T01:45:03.110Z,56.9
2016-08-20T01:45:27.228Z,57.2
2016-08-20T01:45:51.319Z,56.9
2016-08-20T01:46:15.446Z,56.8
2016-08-20T01:46:39.566Z,57
2016-08-20T01:47:03.698Z,57
2016-08-20T01:47:27.807Z,57.1
2016-08-20T01:47:51.917Z,56.6
2016-08-20T01:48:16.038Z,56.6
2016-08-20T01:48:40.178Z,57.1
2016-08-20T01:49:04.315Z,57.1
2016-08-20T01:49:28.432Z,56.9
2016-08-20T01:49:52.564Z,56.9
2016-08-20T01:50:16.659Z,57
2016-08-20T01:50:40.809Z,57.1
2016-08-20T01:51:04.931Z,56.7
2016-08-20T01:51:29.057Z,56.9
2016-08-20T01:51:53.190Z,56.8
2016-08-20T01:52:17.329Z,57
2016-08-20T01:52:41.427Z,57
2016-08-20T01:53:05.565Z,57
2016-08-20T01:53:29.694Z,57.1
2016-08-20T01:53:53.841Z,56.9
2016-08-20T01:54:17.984Z,57.1
2016-08-20T01:54:42.159Z,57.1
2016-08-20T01:55:06.338Z,56.9
2016-08-20T01:55:30.465Z,56.5
2016-08-20T01:55:54.594Z,56.6
2016-08-20T01:56:18.701Z,56.6
2016-08-20T01:56:42.829Z,57.1
2016-08-20T01:57:06.960Z,57.1
2016-08-20T01:57:31.080Z,57
2016-08-20T01:57:55.224Z,57
2016-08-20T01:58:19.341Z,56.9
2016-08-20T01:58:43.480Z,56.9
2016-08-20T01:59:07.592Z,57
2016-08-20T01:59:31.729Z,57
2016-08-20T01:59:55.857Z,57
2016-08-20T02:00:20.005Z,57
2016-08-20T02:00:44.149Z,56.4
2016-08-20T02:01:08.255Z,56.5
2016-08-20T02:01:32.382Z,56.5
2016-08-20T02:01:56.489Z,56.6
2016-08-20T02:02:20.615Z,56.6
2016-08-20T02:02:44.720Z,56.5
2016-08-20T02:03:08.822Z,56.5
2016-08-20T02:03:32.989Z,56.4
2016-08-20T02:03:57.117Z,56.7
2016-08-20T02:04:21.237Z,56.5
2016-08-20T02:04:45.347Z,56.6
2016-08-20T02:05:09.465Z,57.1
2016-08-20T02:05:33.596Z,56.9
2016-08-20T02:05:57.719Z,56.9
2016-08-20T02:06:21.827Z,57
2016-08-20T02:06:45.960Z,56.8
2016-08-20T02:07:10.102Z,56.8
2016-08-20T02:07:34.291Z,56.7
2016-08-20T02:07:58.395Z,57.3
2016-08-20T02:08:22.574Z,56.6
2016-08-20T02:08:46.679Z,56.7
2016-08-20T02:09:11.042Z,56.9
2016-08-20T02:09:35.166Z,56.8
2016-08-20T02:09:59.285Z,56.6
2016-08-20T02:10:23.433Z,56.9
2016-08-20T02:10:47.540Z,56.8
2016-08-20T02:11:11.648Z,56.7
2016-08-20T02:11:35.766Z,57
2016-08-20T02:11:59.932Z,57
2016-08-20T02:12:24.109Z,56.9
2016-08-20T02:12:48.206Z,56.7
2016-08-20T02:13:12.324Z,56.7
2016-08-20T02:13:36.464Z,57.2
2016-08-20T02:14:00.589Z,57
2016-08-20T02:14:24.701Z,56.7
2016-08-20T02:14:48.837Z,56.9
2016-08-20T02:15:13.028Z,57.1
2016-08-20T02:15:37.247Z,57.1
2016-08-20T02:16:01.369Z,57.1
2016-08-20T02:16:25.529Z,57
2016-08-20T02:16:49.665Z,56.8
2016-08-20T02:17:13.815Z,56.9
2016-08-20T02:17:37.958Z,57.1
2016-08-20T02:18:02.070Z,57.1
2016-08-20T02:18:26.172Z,57.2
2016-08-20T02:18:51.885Z,56.7
2016-08-20T02:19:16.002Z,56.9
2016-08-20T02:19:40.092Z,57.2
2016-08-20T02:20:04.200Z,57
2016-08-20T02:20:28.350Z,56.9
2016-08-20T02:20:52.471Z,57
2016-08-20T02:21:16.613Z,57.6
2016-08-20T02:21:40.777Z,57.7
2016-08-20T02:22:04.902Z,57.9
2016-08-20T02:22:29.023Z,57.8
2016-08-20T02:22:53.126Z,57.8
2016-08-20T02:23:17.254Z,57.5
2016-08-20T02:23:41.384Z,57.5
2016-08-20T02:24:05.500Z,58.3
2016-08-20T02:24:29.614Z,57.7
2016-08-20T02:24:53.783Z,57.8
2016-08-20T02:25:17.963Z,57.8
2016-08-20T02:25:42.084Z,57.5
2016-08-20T02:26:06.207Z,57.6
2016-08-20T02:26:30.321Z,57.4
2016-08-20T02:26:54.461Z,57.8
2016-08-20T02:27:18.576Z,57.6
2016-08-20T02:27:42.726Z,57.8
2016-08-20T02:28:06.806Z,57.6
2016-08-20T02:28:30.939Z,57.7
2016-08-20T02:28:55.098Z,57.7
2016-08-20T02:29:19.306Z,57.5
2016-08-20T02:29:43.496Z,57.6
2016-08-20T02:30:07.612Z,57.4
2016-08-20T02:30:31.757Z,57.5
2016-08-20T02:30:55.891Z,57.8
2016-08-20T02:31:20.011Z,57.7
2016-08-20T02:31:44.126Z,57.8
2016-08-20T02:32:08.291Z,58.1
2016-08-20T02:32:32.405Z,57.9
2016-08-20T02:32:56.507Z,57.9
2016-08-20T02:33:20.642Z,58.2
2016-08-20T02:33:44.897Z,57.9
2016-08-20T02:34:09.012Z,57.9
2016-08-20T02:34:33.143Z,58.1
2016-08-20T02:34:57.283Z,58
2016-08-20T02:35:21.425Z,57.9
2016-08-20T02:35:45.580Z,57.9
2016-08-20T02:36:09.690Z,58.1
2016-08-20T02:36:33.836Z,58
2016-08-20T02:36:57.992Z,57.9
2016-08-20T02:37:22.136Z,58.3
2016-08-20T02:37:46.242Z,58.2
2016-08-20T02:38:10.424Z,58.2
2016-08-20T02:38:34.563Z,58.1
2016-08-20T02:38:58.688Z,58.3
2016-08-20T02:39:22.863Z,57.8
2016-08-20T02:39:46.984Z,57.8
2016-08-20T02:40:11.104Z,58.1
2016-08-20T02:40:35.228Z,58.3
2016-08-20T02:40:59.350Z,58.2
2016-08-20T02:41:23.487Z,58.3
2016-08-20T02:41:47.622Z,58
2016-08-20T02:42:11.724Z,58.4
2016-08-20T02:42:35.823Z,57.9
2016-08-20T02:42:59.943Z,58.1
2016-08-20T02:43:24.053Z,58.1
2016-08-20T02:43:48.198Z,58.1
2016-08-20T02:44:12.324Z,58.2
2016-08-20T02:44:36.423Z,58.3
2016-08-20T02:45:00.536Z,58.5
2016-08-20T02:45:24.659Z,58.9
2016-08-20T02:45:48.781Z,59
2016-08-20T02:46:12.874Z,58.5
2016-08-20T02:46:37.008Z,58
2016-08-20T02:47:01.125Z,58.9
2016-08-20T02:47:25.244Z,58.7
2016-08-20T02:47:49.484Z,58.6
2016-08-20T02:48:13.619Z,59.1
2016-08-20T02:48:37.807Z,58.7
2016-08-20T02:49:01.925Z,58.6
2016-08-20T02:49:26.178Z,58.5
2016-08-20T02:49:50.302Z,58.4
2016-08-20T02:50:14.395Z,57.9
2016-08-20T02:50:38.518Z,57.9
2016-08-20T02:51:02.613Z,59.1
2016-08-20T02:51:26.732Z,58.6
2016-08-20T02:51:50.848Z,58.8
2016-08-20T02:52:14.988Z,59
2016-08-20T02:52:39.096Z,58.8
2016-08-20T02:53:03.189Z,58.5
2016-08-20T02:53:27.317Z,58.5
2016-08-20T02:53:51.465Z,58.5
2016-08-20T02:54:15.604Z,58.4
2016-08-20T02:54:39.710Z,58.5
2016-08-20T02:55:03.827Z,59
2016-08-20T02:55:27.933Z,58.6
2016-08-20T02:55:52.067Z,58.5
2016-08-20T02:56:16.168Z,58.9
2016-08-20T02:56:40.290Z,58.6
2016-08-20T02:57:04.405Z,58.5
2016-08-20T02:57:28.502Z,58.9
2016-08-20T02:57:52.661Z,58.7
2016-08-20T02:58:16.821Z,58.7
2016-08-20T02:58:40.948Z,58.5
2016-08-20T02:59:05.066Z,58.5
2016-08-20T02:59:29.171Z,58.9
2016-08-20T02:59:53.272Z,59.1
2016-08-20T03:00:17.400Z,59
2016-08-20T03:00:41.536Z,59.1
2016-08-20T03:01:05.675Z,58.8
2016-08-20T03:01:29.806Z,59.4
2016-08-20T03:01:53.959Z,59
2016-08-20T03:02:18.052Z,59
2016-08-20T03:02:42.212Z,59.2
2016-08-20T03:03:06.349Z,58.9
2016-08-20T03:03:30.462Z,59.5
2016-08-20T03:03:54.574Z,59.3
2016-08-20T03:04:18.717Z,59.6
2016-08-20T03:04:42.843Z,59.7
2016-08-20T03:05:06.962Z,59.2
2016-08-20T03:05:31.938Z,59.2
2016-08-20T03:05:56.093Z,59.4
2016-08-20T03:06:20.229Z,59.5
2016-08-20T03:06:44.332Z,59.3
2016-08-20T03:07:08.464Z,59.1
2016-08-20T03:07:32.586Z,59.6
2016-08-20T03:07:56.666Z,59.6
2016-08-20T03:08:20.773Z,59.5
2016-08-20T03:08:44.897Z,59.2
2016-08-20T03:09:09.012Z,59.4
2016-08-20T03:09:33.096Z,59.3
2016-08-20T03:09:57.214Z,59.2
2016-08-20T03:10:21.333Z,59.4
2016-08-20T03:10:45.485Z,59.4
2016-08-20T03:11:09.573Z,59.4
2016-08-20T03:11:33.711Z,59.5
2016-08-20T03:11:57.824Z,59.1
2016-08-20T03:12:21.942Z,59.2
2016-08-20T03:12:46.036Z,59.3
2016-08-20T03:13:10.152Z,59.2
2016-08-20T03:13:34.303Z,59.3
2016-08-20T03:13:58.434Z,59.1
2016-08-20T03:14:22.530Z,59.4
2016-08-20T03:14:46.668Z,59.1
2016-08-20T03:15:10.782Z,59.2
2016-08-20T03:15:34.929Z,59.5
2016-08-20T03:15:59.049Z,59.2
2016-08-20T03:16:23.145Z,59.2
2016-08-20T03:16:47.282Z,59.1
2016-08-20T03:17:11.389Z,59.6
2016-08-20T03:17:35.518Z,59.1
2016-08-20T03:17:59.662Z,59.3
2016-08-20T03:18:23.842Z,58.9
2016-08-20T03:18:47.960Z,58.9
2016-08-20T03:19:12.063Z,59
2016-08-20T03:19:36.181Z,59
2016-08-20T03:20:00.343Z,59.3
2016-08-20T03:20:24.462Z,59.3
2016-08-20T03:20:48.612Z,59.6
2016-08-20T03:21:12.708Z,59.6
2016-08-20T03:21:36.828Z,59.4
2016-08-20T03:22:00.977Z,59.6
2016-08-20T03:22:25.094Z,59.6
2016-08-20T03:22:49.256Z,59.4
2016-08-20T03:23:13.353Z,59.5
2016-08-20T03:23:37.459Z,59.6
2016-08-20T03:24:01.581Z,59.4
2016-08-20T03:24:25.733Z,59.6
2016-08-20T03:24:49.833Z,59.3
2016-08-20T03:25:14.008Z,59.5
2016-08-20T03:25:38.123Z,59.6
2016-08-20T03:26:02.265Z,59.7
2016-08-20T03:26:26.400Z,59.2
2016-08-20T03:26:50.507Z,59.3
2016-08-20T03:27:14.587Z,59.5
2016-08-20T03:27:38.685Z,59.4
2016-08-20T03:28:02.823Z,59.4
2016-08-20T03:28:26.932Z,59.4
2016-08-20T03:28:51.048Z,59.8
2016-08-20T03:29:15.162Z,60.2
2016-08-20T03:29:39.296Z,59.6
2016-08-20T03:30:03.404Z,59.9
2016-08-20T03:30:27.504Z,60.3
2016-08-20T03:30:51.668Z,59.9
2016-08-20T03:31:15.758Z,60.2
2016-08-20T03:31:39.869Z,60.4
2016-08-20T03:32:04.027Z,60.3
2016-08-20T03:32:28.155Z,60.2
2016-08-20T03:32:52.243Z,60
2016-08-20T03:33:16.373Z,60.3
2016-08-20T03:33:40.519Z,59.8
2016-08-20T03:34:04.674Z,60.1
2016-08-20T03:34:28.761Z,60.3
2016-08-20T03:34:52.973Z,60.2
2016-08-20T03:35:17.119Z,60.1
2016-08-20T03:35:41.237Z,60.2
2016-08-20T03:36:05.351Z,60.2
2016-08-20T03:36:29.512Z,60
2016-08-20T03:36:53.647Z,60.2
2016-08-20T03:37:17.771Z,60.3
2016-08-20T03:37:41.866Z,60
2016-08-20T03:38:05.975Z,59.9
2016-08-20T03:38:30.105Z,59.8
2016-08-20T03:38:54.201Z,60.1
2016-08-20T03:39:18.350Z,60.2
2016-08-20T03:39:42.465Z,60.4
2016-08-20T03:40:06.576Z,59.8
2016-08-20T03:40:30.727Z,59.8
2016-08-20T03:40:54.828Z,59.8
2016-08-20T03:41:18.939Z,59.9
2016-08-20T03:41:43.033Z,59.8
2016-08-20T03:42:07.140Z,59.8
2016-08-20T03:42:31.269Z,59.8
2016-08-20T03:42:55.376Z,59.9
2016-08-20T03:43:19.493Z,59.8
2016-08-20T03:43:43.640Z,60.2
2016-08-20T03:44:07.753Z,60.2
2016-08-20T03:44:31.874Z,59.6
2016-08-20T03:44:55.999Z,60.3
2016-08-20T03:45:20.137Z,60.3
2016-08-20T03:45:44.264Z,60
2016-08-20T03:46:08.389Z,59.8
2016-08-20T03:46:32.515Z,59.8
2016-08-20T03:46:56.630Z,60.2
2016-08-20T03:47:20.780Z,60.2
2016-08-20T03:47:44.907Z,60.1
2016-08-20T03:48:09.027Z,60.3
2016-08-20T03:48:33.149Z,60
2016-08-20T03:48:57.274Z,60.2
2016-08-20T03:49:21.372Z,60.2
2016-08-20T03:49:45.554Z,59.9
2016-08-20T03:50:09.694Z,59.6
2016-08-20T03:50:33.815Z,60.2
2016-08-20T03:50:57.888Z,59.7
2016-08-20T03:51:22.016Z,59.6
2016-08-20T03:51:46.189Z,59.6
2016-08-20T03:52:10.318Z,60
2016-08-20T03:52:34.391Z,60.3
2016-08-20T03:52:58.507Z,60.1
2016-08-20T03:53:22.677Z,60.3
2016-08-20T03:53:46.801Z,60.3
2016-08-20T03:54:10.936Z,60.1
2016-08-20T03:54:35.023Z,60.4
2016-08-20T03:54:59.179Z,60
2016-08-20T03:55:23.357Z,60.4
2016-08-20T03:55:47.488Z,60.2
2016-08-20T03:56:11.626Z,60.2
2016-08-20T03:56:35.750Z,60.2
2016-08-20T03:56:59.872Z,60
2016-08-20T03:57:24.009Z,60.5
2016-08-20T03:57:48.166Z,59.9
2016-08-20T03:58:12.278Z,60.3
2016-08-20T03:58:36.439Z,60.2
2016-08-20T03:59:00.567Z,60
2016-08-20T03:59:24.692Z,60
2016-08-20T03:59:48.843Z,60
2016-08-20T04:00:12.986Z,60.3
2016-08-20T04:00:37.105Z,59.6
2016-08-20T04:01:01.311Z,59.9
2016-08-20T04:01:25.441Z,59.6
2016-08-20T04:01:49.594Z,59.8
2016-08-20T04:02:13.714Z,59.9
2016-08-20T04:02:37.841Z,59.6
2016-08-20T04:03:01.926Z,60.3
2016-08-20T04:03:26.029Z,59.9
2016-08-20T04:03:50.196Z,60.1
2016-08-20T04:04:14.305Z,60.2
2016-08-20T04:04:38.421Z,59.9
2016-08-20T04:05:02.544Z,59.9
2016-08-20T04:05:26.677Z,60.4
2016-08-20T04:05:50.812Z,60.5
2016-08-20T04:06:14.940Z,60.4
2016-08-20T04:06:39.091Z,60.3
2016-08-20T04:07:03.243Z,60.4
2016-08-20T04:07:27.357Z,60.3
2016-08-20T04:07:51.457Z,60.4
2016-08-20T04:08:15.608Z,60.1
2016-08-20T04:08:39.727Z,60.3
2016-08-20T04:09:03.815Z,60.1
2016-08-20T04:09:27.947Z,60
2016-08-20T04:09:52.118Z,60.6
2016-08-20T04:10:16.241Z,60.3
2016-08-20T04:10:40.360Z,59.9
2016-08-20T04:11:04.493Z,60.2
2016-08-20T04:11:28.628Z,60.3
2016-08-20T04:11:52.754Z,60.4
2016-08-20T04:12:16.857Z,60.3
2016-08-20T04:12:40.971Z,60.5
2016-08-20T04:13:05.116Z,60.5
2016-08-20T04:13:29.200Z,60.1
2016-08-20T04:13:53.319Z,60.2
2016-08-20T04:14:17.452Z,59.9
2016-08-20T04:14:41.578Z,60.1
2016-08-20T04:15:05.714Z,59.9
2016-08-20T04:15:29.814Z,59.9
2016-08-20T04:15:53.923Z,59.8
2016-08-20T04:16:18.046Z,59.8
2016-08-20T04:16:42.151Z,59.8
2016-08-20T04:17:06.281Z,60.1
2016-08-20T04:17:30.402Z,60.3
2016-08-20T04:17:54.583Z,60.4
2016-08-20T04:18:18.678Z,60.2
2016-08-20T04:18:42.879Z,60.2
2016-08-20T04:19:07.008Z,60.3
2016-08-20T04:19:31.213Z,60
2016-08-20T04:19:55.347Z,59.9
2016-08-20T04:20:19.548Z,59.9
2016-08-20T04:20:43.700Z,60.4
2016-08-20T04:21:07.875Z,60.5
2016-08-20T04:21:32.035Z,60.5
2016-08-20T04:21:56.198Z,59.7
2016-08-20T04:22:20.310Z,59.8
2016-08-20T04:22:44.473Z,60.5
2016-08-20T04:23:08.541Z,59.8
2016-08-20T04:23:32.692Z,59.8
2016-08-20T04:23:56.787Z,60
2016-08-20T04:24:20.932Z,60
2016-08-20T04:24:45.233Z,59.7
2016-08-20T04:25:11.812Z,60
2016-08-20T04:26:59.058Z,60.4
2016-08-20T04:27:23.312Z,60.1
2016-08-20T04:27:47.558Z,59.8
2016-08-20T04:28:12.759Z,59.7
2016-08-20T04:28:36.872Z,60
2016-08-20T04:29:05.931Z,60.7
2016-08-20T04:29:43.302Z,60.4
2016-08-20T04:30:09.030Z,60.5
2016-08-20T04:30:33.223Z,60.7
2016-08-20T04:30:58.719Z,60.5
2016-08-20T04:31:25.072Z,60.5
2016-08-20T04:32:00.775Z,60.9
2016-08-20T04:32:30.026Z,60.7
2016-08-20T04:32:56.139Z,60.5
2016-08-20T04:33:26.425Z,60.9
2016-08-20T04:33:56.738Z,60.5
2016-08-20T04:34:22.758Z,60.7
2016-08-20T04:34:50.195Z,60.7
2016-08-20T04:35:16.533Z,60.9
2016-08-20T04:35:42.431Z,60.9
2016-08-20T04:36:16.079Z,61.2
2016-08-20T04:36:41.633Z,61.5
2016-08-20T04:37:07.071Z,62
2016-08-20T04:37:31.632Z,61.7
2016-08-20T04:37:56.295Z,61.6
2016-08-20T04:38:20.662Z,61.7
2016-08-20T04:38:44.786Z,61.5
2016-08-20T04:39:08.895Z,61.6
2016-08-20T04:39:33.661Z,61.6
2016-08-20T04:39:59.798Z,61.6
2016-08-20T04:40:28.054Z,61.8
2016-08-20T04:40:52.381Z,61.9
2016-08-20T04:41:18.126Z,62.1
2016-08-20T04:41:45.369Z,62.5
2016-08-20T04:42:11.122Z,62.6
2016-08-20T04:42:39.195Z,62.2
2016-08-20T04:43:04.073Z,62.3
2016-08-20T04:43:30.905Z,62.5
2016-08-20T04:43:58.489Z,62.8
2016-08-20T04:44:25.330Z,62.8
2016-08-20T04:44:54.527Z,62.8
2016-08-20T04:45:20.632Z,62.7
2016-08-20T04:45:46.639Z,62.8
2016-08-20T04:46:12.003Z,62.6
2016-08-20T04:46:37.656Z,62.6
2016-08-20T04:47:06.558Z,62.6
2016-08-20T04:47:35.431Z,62.3
2016-08-20T04:48:03.922Z,62.3
2016-08-20T04:48:29.346Z,62.8
2016-08-20T04:48:56.038Z,62.7
2016-08-20T04:49:23.037Z,62.7
2016-08-20T04:49:49.455Z,62.6
2016-08-20T04:50:15.589Z,62.7
2016-08-20T04:50:42.102Z,62.7
2016-08-20T04:51:07.460Z,62.5
2016-08-20T04:51:32.899Z,63.1
2016-08-20T04:51:57.004Z,62.8
2016-08-20T04:52:21.115Z,63.2
2016-08-20T04:52:45.232Z,63.3
2016-08-20T04:53:09.353Z,63.9
2016-08-20T04:53:33.499Z,63.8
2016-08-20T04:53:57.616Z,63.7
2016-08-20T04:54:21.725Z,63.8
2016-08-20T04:54:45.839Z,63.2
2016-08-20T04:55:09.954Z,63.5
2016-08-20T04:55:34.106Z,63.7
2016-08-20T04:55:58.256Z,63.8
2016-08-20T04:56:22.428Z,63.7
2016-08-20T04:56:46.550Z,63.7
2016-08-20T04:57:10.680Z,63.5
2016-08-20T04:57:34.840Z,63.6
2016-08-20T04:57:58.995Z,64.4
2016-08-20T04:58:23.130Z,63.9
2016-08-20T04:58:47.282Z,64.5
2016-08-20T04:59:11.418Z,64.1
2016-08-20T04:59:35.557Z,64.1
2016-08-20T04:59:59.678Z,64
2016-08-20T05:00:23.818Z,64.1
2016-08-20T05:00:48.027Z,64
2016-08-20T05:01:12.143Z,64.4
2016-08-20T05:01:36.355Z,64
2016-08-20T05:02:00.785Z,64.4
2016-08-20T05:02:24.959Z,64.4
2016-08-20T05:02:49.077Z,64.1
2016-08-20T05:03:13.229Z,64.8
2016-08-20T05:03:37.344Z,64.9
2016-08-20T05:04:01.491Z,64.9
2016-08-20T05:04:25.730Z,65
2016-08-20T05:04:49.890Z,64.8
2016-08-20T05:05:14.033Z,64.6
2016-08-20T05:05:38.179Z,64.8
2016-08-20T05:06:02.345Z,64.8
2016-08-20T05:06:26.519Z,64.6
2016-08-20T05:06:50.647Z,64.6
2016-08-20T05:07:14.773Z,64.8
2016-08-20T05:07:38.947Z,64.5
2016-08-20T05:08:03.049Z,64.9
2016-08-20T05:08:27.191Z,64.9
2016-08-20T05:08:51.434Z,64.5
2016-08-20T05:09:15.564Z,64.7
2016-08-20T05:09:39.739Z,64.8
2016-08-20T05:10:03.896Z,64.7
2016-08-20T05:10:28.053Z,64.9
2016-08-20T05:10:52.183Z,64.7
2016-08-20T05:11:16.304Z,65
2016-08-20T05:11:40.407Z,64.9
2016-08-20T05:12:04.565Z,64.9
2016-08-20T05:12:28.671Z,64.8
2016-08-20T05:12:52.809Z,65
2016-08-20T05:13:16.937Z,64.9
2016-08-20T05:13:41.083Z,65.1
2016-08-20T05:14:05.209Z,65.1
2016-08-20T05:14:29.342Z,65
2016-08-20T05:14:53.457Z,64.8
2016-08-20T05:15:17.578Z,64.5
2016-08-20T05:15:41.772Z,64.7
2016-08-20T05:16:05.920Z,65.1
2016-08-20T05:16:30.047Z,64.7
2016-08-20T05:16:54.177Z,64.8
2016-08-20T05:17:18.296Z,65
2016-08-20T05:17:42.433Z,64.5
2016-08-20T05:18:06.580Z,64.6
2016-08-20T05:18:31.487Z,64.6
2016-08-20T05:18:56.361Z,64.9
2016-08-20T05:19:20.596Z,64.9
2016-08-20T05:19:44.715Z,65
2016-08-20T05:20:08.891Z,65
2016-08-20T05:20:33.147Z,64.8
2016-08-20T05:20:57.320Z,64.7
2016-08-20T05:21:21.482Z,64.6
2016-08-20T05:21:45.616Z,64.7
2016-08-20T05:22:09.726Z,64.7
2016-08-20T05:22:33.966Z,64.5
2016-08-20T05:22:58.107Z,64.8
2016-08-20T05:23:22.282Z,64.8
2016-08-20T05:23:46.411Z,64.7
2016-08-20T05:24:10.534Z,64.8
2016-08-20T05:24:34.688Z,64.9
2016-08-20T05:24:58.971Z,64.9
2016-08-20T05:25:23.087Z,64.7
2016-08-20T05:25:47.206Z,64.7
2016-08-20T05:26:11.317Z,65
2016-08-20T05:26:35.439Z,65
2016-08-20T05:26:59.614Z,64.7
2016-08-20T05:27:23.768Z,64.7